sensor_id;sensor_type;location;lat;lon;timestamp;pressure;altitude;pressure_sealevel;temperature;humidity
76352;BME280;65179;47.786;19.138;2023-05-10T00:00:28;100571.38;;;13.78;51.53
76352;BME280;65179;47.786;19.138;2023-05-10T00:02:53;100572.19;;;13.66;51.41
76352;BME280;65179;47.786;19.138;2023-05-10T00:05:19;100565.56;;;13.74;51.51
76352;BME280;65179;47.786;19.138;2023-05-10T00:07:44;100563.44;;;13.76;51.68
76352;BME280;65179;47.786;19.138;2023-05-10T00:10:11;100562.59;;;13.76;52.46
76352;BME280;65179;47.786;19.138;2023-05-10T00:12:36;100561.69;;;13.82;52.19
76352;BME280;65179;47.786;19.138;2023-05-10T00:15:02;100555.50;;;13.75;52.02
76352;BME280;65179;47.786;19.138;2023-05-10T00:17:28;100562.25;;;13.72;52.10
76352;BME280;65179;47.786;19.138;2023-05-10T00:19:53;100563.69;;;13.75;52.24
76352;BME280;65179;47.786;19.138;2023-05-10T00:22:19;100562.37;;;13.65;52.18
76352;BME280;65179;47.786;19.138;2023-05-10T00:24:45;100549.78;;;13.64;52.18
76352;BME280;65179;47.786;19.138;2023-05-10T00:27:10;100545.00;;;13.37;52.82
76352;BME280;65179;47.786;19.138;2023-05-10T00:29:36;100538.72;;;13.48;53.02
76352;BME280;65179;47.786;19.138;2023-05-10T00:32:01;100543.94;;;13.49;52.81
76352;BME280;65179;47.786;19.138;2023-05-10T00:34:27;100536.50;;;13.56;52.92
76352;BME280;65179;47.786;19.138;2023-05-10T00:36:52;100534.94;;;13.49;53.06
76352;BME280;65179;47.786;19.138;2023-05-10T00:39:17;100536.72;;;13.43;53.39
76352;BME280;65179;47.786;19.138;2023-05-10T00:41:43;100527.56;;;13.38;53.86
76352;BME280;65179;47.786;19.138;2023-05-10T00:44:08;100532.06;;;13.32;54.36
76352;BME280;65179;47.786;19.138;2023-05-10T00:46:34;100530.97;;;13.22;54.64
76352;BME280;65179;47.786;19.138;2023-05-10T00:49:00;100537.22;;;13.11;55.37
76352;BME280;65179;47.786;19.138;2023-05-10T00:51:25;100537.28;;;13.04;55.88
76352;BME280;65179;47.786;19.138;2023-05-10T00:53:51;100547.78;;;13.07;55.90
76352;BME280;65179;47.786;19.138;2023-05-10T00:56:17;100535.94;;;12.95;56.55
76352;BME280;65179;47.786;19.138;2023-05-10T00:58:43;100543.22;;;13.01;56.63
76352;BME280;65179;47.786;19.138;2023-05-10T01:01:08;100539.22;;;13.04;56.59
76352;BME280;65179;47.786;19.138;2023-05-10T01:03:34;100541.03;;;13.10;56.58
76352;BME280;65179;47.786;19.138;2023-05-10T01:06:01;100533.91;;;13.09;56.65
76352;BME280;65179;47.786;19.138;2023-05-10T01:08:26;100529.69;;;12.94;57.68
76352;BME280;65179;47.786;19.138;2023-05-10T01:10:53;100535.16;;;12.94;57.70
76352;BME280;65179;47.786;19.138;2023-05-10T01:13:37;100536.28;;;12.87;57.71
76352;BME280;65179;47.786;19.138;2023-05-10T01:16:03;100532.97;;;12.85;58.14
76352;BME280;65179;47.786;19.138;2023-05-10T01:18:39;100537.66;;;12.78;57.83
76352;BME280;65179;47.786;19.138;2023-05-10T01:21:30;100529.63;;;12.83;58.31
76352;BME280;65179;47.786;19.138;2023-05-10T01:30:21;100530.00;;;12.86;58.84
76352;BME280;65179;47.786;19.138;2023-05-10T01:35:42;100529.53;;;12.89;59.03
76352;BME280;65179;47.786;19.138;2023-05-10T01:41:19;100531.31;;;12.84;59.38
76352;BME280;65179;47.786;19.138;2023-05-10T01:43:57;100530.66;;;13.00;58.78
76352;BME280;65179;47.786;19.138;2023-05-10T01:46:41;100529.78;;;12.88;58.81
76352;BME280;65179;47.786;19.138;2023-05-10T01:49:43;100524.53;;;12.75;59.19
76352;BME280;65179;47.786;19.138;2023-05-10T01:52:14;100530.56;;;12.77;59.28
76352;BME280;65179;47.786;19.138;2023-05-10T01:54:49;100527.84;;;12.77;59.15
76352;BME280;65179;47.786;19.138;2023-05-10T01:57:19;100520.25;;;12.79;59.45
76352;BME280;65179;47.786;19.138;2023-05-10T01:59:48;100531.03;;;12.74;59.49
76352;BME280;65179;47.786;19.138;2023-05-10T02:02:15;100521.19;;;12.73;60.01
76352;BME280;65179;47.786;19.138;2023-05-10T02:04:42;100523.75;;;12.86;59.86
76352;BME280;65179;47.786;19.138;2023-05-10T02:07:09;100520.16;;;12.85;60.10
76352;BME280;65179;47.786;19.138;2023-05-10T02:09:36;100526.13;;;12.94;59.84
76352;BME280;65179;47.786;19.138;2023-05-10T02:12:03;100519.50;;;13.02;59.81
76352;BME280;65179;47.786;19.138;2023-05-10T02:14:32;100513.69;;;12.98;59.62
76352;BME280;65179;47.786;19.138;2023-05-10T02:17:00;100511.41;;;12.95;59.50
76352;BME280;65179;47.786;19.138;2023-05-10T02:19:28;100508.25;;;12.98;59.63
76352;BME280;65179;47.786;19.138;2023-05-10T02:21:55;100507.16;;;12.87;60.14
76352;BME280;65179;47.786;19.138;2023-05-10T02:24:22;100509.78;;;12.94;59.81
76352;BME280;65179;47.786;19.138;2023-05-10T02:26:49;100512.66;;;12.99;59.92
76352;BME280;65179;47.786;19.138;2023-05-10T02:29:16;100501.75;;;12.99;60.17
76352;BME280;65179;47.786;19.138;2023-05-10T02:31:43;100504.97;;;12.78;60.90
76352;BME280;65179;47.786;19.138;2023-05-10T02:34:10;100510.72;;;12.88;60.76
76352;BME280;65179;47.786;19.138;2023-05-10T02:36:38;100521.97;;;12.91;60.64
76352;BME280;65179;47.786;19.138;2023-05-10T02:39:04;100516.16;;;12.88;60.71
76352;BME280;65179;47.786;19.138;2023-05-10T02:41:35;100522.66;;;12.87;60.89
76352;BME280;65179;47.786;19.138;2023-05-10T02:44:02;100518.78;;;12.65;61.35
76352;BME280;65179;47.786;19.138;2023-05-10T02:46:29;100521.59;;;12.58;61.41
76352;BME280;65179;47.786;19.138;2023-05-10T02:48:55;100522.09;;;12.67;61.46
76352;BME280;65179;47.786;19.138;2023-05-10T02:51:24;100517.28;;;12.69;61.33
76352;BME280;65179;47.786;19.138;2023-05-10T02:53:53;100515.19;;;12.53;61.73
76352;BME280;65179;47.786;19.138;2023-05-10T02:56:34;100521.59;;;12.58;61.69
76352;BME280;65179;47.786;19.138;2023-05-10T02:59:01;100524.19;;;12.53;61.77
76352;BME280;65179;47.786;19.138;2023-05-10T03:01:26;100529.25;;;12.50;61.81
76352;BME280;65179;47.786;19.138;2023-05-10T03:03:52;100523.78;;;12.50;61.91
76352;BME280;65179;47.786;19.138;2023-05-10T03:06:17;100524.44;;;12.34;62.64
76352;BME280;65179;47.786;19.138;2023-05-10T03:08:44;100531.84;;;12.45;62.28
76352;BME280;65179;47.786;19.138;2023-05-10T03:11:31;100523.66;;;12.45;62.29
76352;BME280;65179;47.786;19.138;2023-05-10T03:17:13;100523.50;;;12.40;62.72
76352;BME280;65179;47.786;19.138;2023-05-10T03:22:23;100519.06;;;12.27;63.05
76352;BME280;65179;47.786;19.138;2023-05-10T03:24:51;100522.22;;;12.24;63.04
76352;BME280;65179;47.786;19.138;2023-05-10T03:27:18;100518.78;;;12.17;63.50
76352;BME280;65179;47.786;19.138;2023-05-10T03:29:45;100520.12;;;12.08;64.09
76352;BME280;65179;47.786;19.138;2023-05-10T03:32:11;100521.56;;;12.10;64.11
76352;BME280;65179;47.786;19.138;2023-05-10T03:34:41;100518.84;;;12.10;64.76
76352;BME280;65179;47.786;19.138;2023-05-10T03:37:08;100525.94;;;12.11;64.48
76352;BME280;65179;47.786;19.138;2023-05-10T03:39:33;100513.41;;;12.10;66.00
76352;BME280;65179;47.786;19.138;2023-05-10T03:41:59;100510.53;;;12.05;65.34
76352;BME280;65179;47.786;19.138;2023-05-10T03:44:24;100513.47;;;12.04;65.85
76352;BME280;65179;47.786;19.138;2023-05-10T03:46:50;100520.03;;;11.96;65.83
76352;BME280;65179;47.786;19.138;2023-05-10T03:49:15;100517.75;;;11.93;66.12
76352;BME280;65179;47.786;19.138;2023-05-10T03:51:40;100517.63;;;11.88;66.26
76352;BME280;65179;47.786;19.138;2023-05-10T03:54:06;100519.56;;;11.81;66.96
76352;BME280;65179;47.786;19.138;2023-05-10T03:56:31;100523.97;;;11.82;67.92
76352;BME280;65179;47.786;19.138;2023-05-10T03:58:57;100523.34;;;11.80;68.01
76352;BME280;65179;47.786;19.138;2023-05-10T04:01:23;100516.25;;;11.79;68.08
76352;BME280;65179;47.786;19.138;2023-05-10T04:03:48;100519.56;;;11.81;68.41
76352;BME280;65179;47.786;19.138;2023-05-10T04:06:14;100526.00;;;11.87;68.40
76352;BME280;65179;47.786;19.138;2023-05-10T04:08:39;100520.34;;;11.88;68.71
76352;BME280;65179;47.786;19.138;2023-05-10T04:11:08;100521.63;;;11.86;69.20
76352;BME280;65179;47.786;19.138;2023-05-10T04:13:34;100519.94;;;11.85;68.85
76352;BME280;65179;47.786;19.138;2023-05-10T04:16:00;100519.88;;;11.73;69.39
76352;BME280;65179;47.786;19.138;2023-05-10T04:18:25;100515.66;;;11.77;69.47
76352;BME280;65179;47.786;19.138;2023-05-10T04:20:51;100505.75;;;11.83;69.54
76352;BME280;65179;47.786;19.138;2023-05-10T04:23:16;100520.34;;;11.88;69.51
76352;BME280;65179;47.786;19.138;2023-05-10T04:25:42;100510.91;;;11.66;70.45
76352;BME280;65179;47.786;19.138;2023-05-10T04:28:08;100514.66;;;11.65;70.03
76352;BME280;65179;47.786;19.138;2023-05-10T04:30:33;100509.22;;;11.65;70.03
76352;BME280;65179;47.786;19.138;2023-05-10T04:32:59;100516.75;;;11.70;70.12
76352;BME280;65179;47.786;19.138;2023-05-10T04:35:25;100520.62;;;11.80;70.21
76352;BME280;65179;47.786;19.138;2023-05-10T04:37:50;100514.38;;;11.80;69.75
76352;BME280;65179;47.786;19.138;2023-05-10T04:40:15;100518.37;;;11.77;69.85
76352;BME280;65179;47.786;19.138;2023-05-10T04:42:41;100510.06;;;11.66;70.49
76352;BME280;65179;47.786;19.138;2023-05-10T04:45:07;100523.41;;;11.74;69.48
76352;BME280;65179;47.786;19.138;2023-05-10T04:47:32;100514.97;;;11.82;68.89
76352;BME280;65179;47.786;19.138;2023-05-10T04:49:58;100521.63;;;11.86;68.90
76352;BME280;65179;47.786;19.138;2023-05-10T04:52:23;100517.47;;;11.83;69.05
76352;BME280;65179;47.786;19.138;2023-05-10T04:54:49;100509.00;;;11.91;68.94
76352;BME280;65179;47.786;19.138;2023-05-10T04:57:15;100505.00;;;11.94;68.90
76352;BME280;65179;47.786;19.138;2023-05-10T04:59:41;100508.41;;;12.07;68.35
76352;BME280;65179;47.786;19.138;2023-05-10T05:02:07;100518.53;;;12.00;68.50
76352;BME280;65179;47.786;19.138;2023-05-10T05:04:33;100521.78;;;12.09;68.07
76352;BME280;65179;47.786;19.138;2023-05-10T05:06:58;100513.94;;;12.01;68.27
76352;BME280;65179;47.786;19.138;2023-05-10T05:09:24;100515.28;;;11.92;68.46
76352;BME280;65179;47.786;19.138;2023-05-10T05:11:49;100515.19;;;11.98;68.12
76352;BME280;65179;47.786;19.138;2023-05-10T05:14:14;100512.47;;;11.98;67.87
76352;BME280;65179;47.786;19.138;2023-05-10T05:16:40;100521.69;;;11.79;69.02
76352;BME280;65179;47.786;19.138;2023-05-10T05:19:05;100523.97;;;11.82;68.65
76352;BME280;65179;47.786;19.138;2023-05-10T05:21:31;100520.19;;;11.83;68.30
76352;BME280;65179;47.786;19.138;2023-05-10T05:23:57;100519.50;;;11.88;68.69
76352;BME280;65179;47.786;19.138;2023-05-10T05:26:23;100520.34;;;11.88;68.15
76352;BME280;65179;47.786;19.138;2023-05-10T05:28:48;100524.22;;;11.99;68.29
76352;BME280;65179;47.786;19.138;2023-05-10T05:31:16;100529.25;;;11.95;68.34
76352;BME280;65179;47.786;19.138;2023-05-10T05:33:42;100522.75;;;11.96;67.97
76352;BME280;65179;47.786;19.138;2023-05-10T05:36:08;100526.53;;;11.95;68.74
76352;BME280;65179;47.786;19.138;2023-05-10T05:38:33;100526.22;;;11.85;68.80
76352;BME280;65179;47.786;19.138;2023-05-10T05:40:59;100535.94;;;11.99;68.84
76352;BME280;65179;47.786;19.138;2023-05-10T05:43:24;100537.75;;;12.05;68.61
76352;BME280;65179;47.786;19.138;2023-05-10T05:45:52;100543.78;;;12.07;68.08
76352;BME280;65179;47.786;19.138;2023-05-10T05:48:18;100546.00;;;12.17;68.07
76352;BME280;65179;47.786;19.138;2023-05-10T05:50:44;100532.00;;;12.32;67.19
76352;BME280;65179;47.786;19.138;2023-05-10T05:53:10;100542.81;;;12.38;67.38
76352;BME280;65179;47.786;19.138;2023-05-10T05:55:36;100539.84;;;12.40;67.76
76352;BME280;65179;47.786;19.138;2023-05-10T05:58:01;100548.16;;;12.63;67.14
76352;BME280;65179;47.786;19.138;2023-05-10T06:00:27;100551.88;;;12.80;66.53
76352;BME280;65179;47.786;19.138;2023-05-10T06:02:52;100546.75;;;12.90;66.33
76352;BME280;65179;47.786;19.138;2023-05-10T06:05:17;100548.87;;;12.88;66.50
76352;BME280;65179;47.786;19.138;2023-05-10T06:07:43;100553.28;;;13.01;66.55
76352;BME280;65179;47.786;19.138;2023-05-10T06:10:09;100548.87;;;13.18;66.14
76352;BME280;65179;47.786;19.138;2023-05-10T06:12:35;100556.94;;;13.24;66.08
76352;BME280;65179;47.786;19.138;2023-05-10T06:15:01;100553.88;;;13.32;65.72
76352;BME280;65179;47.786;19.138;2023-05-10T06:17:26;100559.47;;;13.37;65.66
76352;BME280;65179;47.786;19.138;2023-05-10T06:19:52;100559.94;;;13.34;65.94
76352;BME280;65179;47.786;19.138;2023-05-10T06:22:18;100555.41;;;13.28;66.45
76352;BME280;65179;47.786;19.138;2023-05-10T06:24:43;100554.78;;;13.15;66.98
76352;BME280;65179;47.786;19.138;2023-05-10T06:27:09;100562.56;;;13.29;66.49
76352;BME280;65179;47.786;19.138;2023-05-10T06:29:35;100555.91;;;13.37;65.95
76352;BME280;65179;47.786;19.138;2023-05-10T06:32:00;100561.16;;;13.50;65.83
76352;BME280;65179;47.786;19.138;2023-05-10T06:34:26;100564.75;;;13.62;64.85
76352;BME280;65179;47.786;19.138;2023-05-10T06:36:51;100563.22;;;13.66;64.65
76352;BME280;65179;47.786;19.138;2023-05-10T06:39:17;100570.56;;;13.89;64.04
76352;BME280;65179;47.786;19.138;2023-05-10T06:41:42;100572.81;;;13.92;63.65
76352;BME280;65179;47.786;19.138;2023-05-10T06:44:08;100563.56;;;14.04;63.58
76352;BME280;65179;47.786;19.138;2023-05-10T06:46:33;100568.78;;;14.06;63.52
76352;BME280;65179;47.786;19.138;2023-05-10T06:48:59;100565.81;;;14.07;63.74
76352;BME280;65179;47.786;19.138;2023-05-10T06:51:25;100569.47;;;14.36;63.08
76352;BME280;65179;47.786;19.138;2023-05-10T06:53:51;100562.47;;;14.28;61.99
76352;BME280;65179;47.786;19.138;2023-05-10T06:56:16;100575.91;;;14.30;60.24
76352;BME280;65179;47.786;19.138;2023-05-10T06:58:42;100571.16;;;14.37;60.35
76352;BME280;65179;47.786;19.138;2023-05-10T07:01:07;100569.00;;;14.51;60.11
76352;BME280;65179;47.786;19.138;2023-05-10T07:03:33;100565.41;;;14.62;60.02
76352;BME280;65179;47.786;19.138;2023-05-10T07:06:02;100565.47;;;14.78;60.16
76352;BME280;65179;47.786;19.138;2023-05-10T07:08:32;100574.22;;;14.52;60.11
76352;BME280;65179;47.786;19.138;2023-05-10T07:11:03;100565.72;;;14.77;60.15
76352;BME280;65179;47.786;19.138;2023-05-10T07:13:32;100570.75;;;14.96;59.82
76352;BME280;65179;47.786;19.138;2023-05-10T07:15:58;100570.62;;;15.19;59.34
76352;BME280;65179;47.786;19.138;2023-05-10T07:18:24;100565.66;;;15.16;58.87
76352;BME280;65179;47.786;19.138;2023-05-10T07:20:50;100560.56;;;15.37;58.66
76352;BME280;65179;47.786;19.138;2023-05-10T07:23:15;100564.16;;;15.09;58.99
76352;BME280;65179;47.786;19.138;2023-05-10T07:25:45;100566.47;;;15.00;59.34
76352;BME280;65179;47.786;19.138;2023-05-10T07:28:11;100567.91;;;14.91;60.04
76352;BME280;65179;47.786;19.138;2023-05-10T07:30:36;100566.06;;;15.25;60.12
76352;BME280;65179;47.786;19.138;2023-05-10T07:33:01;100569.66;;;15.26;59.34
76352;BME280;65179;47.786;19.138;2023-05-10T07:35:27;100562.41;;;15.64;58.72
76352;BME280;65179;47.786;19.138;2023-05-10T07:37:52;100557.09;;;15.58;58.56
76352;BME280;65179;47.786;19.138;2023-05-10T07:40:18;100563.63;;;15.90;57.54
76352;BME280;65179;47.786;19.138;2023-05-10T07:42:43;100556.03;;;16.30;56.64
76352;BME280;65179;47.786;19.138;2023-05-10T07:45:09;100550.84;;;16.34;54.72
76352;BME280;65179;47.786;19.138;2023-05-10T07:47:34;100552.28;;;16.36;54.71
76352;BME280;65179;47.786;19.138;2023-05-10T07:50:00;100545.19;;;16.40;54.18
76352;BME280;65179;47.786;19.138;2023-05-10T07:52:25;100550.88;;;15.79;56.01
76352;BME280;65179;47.786;19.138;2023-05-10T07:54:51;100548.66;;;16.14;55.00
76352;BME280;65179;47.786;19.138;2023-05-10T07:57:17;100553.03;;;16.32;53.56
76352;BME280;65179;47.786;19.138;2023-05-10T07:59:43;100547.88;;;16.79;52.77
76352;BME280;65179;47.786;19.138;2023-05-10T08:02:09;100557.81;;;17.06;52.15
76352;BME280;65179;47.786;19.138;2023-05-10T08:04:35;100545.47;;;17.35;51.19
76352;BME280;65179;47.786;19.138;2023-05-10T08:07:00;100548.56;;;17.44;50.60
76352;BME280;65179;47.786;19.138;2023-05-10T08:09:28;100550.81;;;17.20;51.16
76352;BME280;65179;47.786;19.138;2023-05-10T08:11:54;100560.62;;;16.90;52.26
76352;BME280;65179;47.786;19.138;2023-05-10T08:14:20;100554.63;;;16.93;52.29
76352;BME280;65179;47.786;19.138;2023-05-10T08:16:45;100559.41;;;16.81;52.67
76352;BME280;65179;47.786;19.138;2023-05-10T08:19:13;100557.34;;;17.14;51.58
76352;BME280;65179;47.786;19.138;2023-05-10T08:21:38;100559.03;;;17.47;51.35
76352;BME280;65179;47.786;19.138;2023-05-10T08:24:05;100556.44;;;17.62;50.51
76352;BME280;65179;47.786;19.138;2023-05-10T08:26:32;100560.75;;;17.26;51.04
76352;BME280;65179;47.786;19.138;2023-05-10T08:28:57;100557.19;;;16.99;51.57
76352;BME280;65179;47.786;19.138;2023-05-10T08:31:23;100555.34;;;16.83;52.64
76352;BME280;65179;47.786;19.138;2023-05-10T08:33:51;100556.63;;;16.97;52.40
76352;BME280;65179;47.786;19.138;2023-05-10T08:36:18;100554.28;;;16.84;52.33
76352;BME280;65179;47.786;19.138;2023-05-10T08:38:47;100558.72;;;16.90;53.16
76352;BME280;65179;47.786;19.138;2023-05-10T08:41:13;100552.19;;;17.50;51.46
76352;BME280;65179;47.786;19.138;2023-05-10T08:43:38;100561.72;;;18.10;49.70
76352;BME280;65179;47.786;19.138;2023-05-10T08:46:14;100558.56;;;18.29;49.27
76352;BME280;65179;47.786;19.138;2023-05-10T08:48:48;100556.53;;;17.72;50.15
76352;BME280;65179;47.786;19.138;2023-05-10T08:51:19;100554.50;;;17.94;49.99
76352;BME280;65179;47.786;19.138;2023-05-10T08:53:46;100540.94;;;18.25;48.64
76352;BME280;65179;47.786;19.138;2023-05-10T08:56:12;100545.25;;;18.57;48.48
76352;BME280;65179;47.786;19.138;2023-05-10T08:58:38;100546.88;;;18.48;48.12
76352;BME280;65179;47.786;19.138;2023-05-10T09:01:05;100552.44;;;18.16;48.51
76352;BME280;65179;47.786;19.138;2023-05-10T09:03:31;100544.25;;;18.27;48.11
76352;BME280;65179;47.786;19.138;2023-05-10T09:05:57;100547.47;;;18.55;48.32
76352;BME280;65179;47.786;19.138;2023-05-10T09:08:24;100553.72;;;19.23;47.09
76352;BME280;65179;47.786;19.138;2023-05-10T09:10:54;100550.03;;;18.87;47.72
76352;BME280;65179;47.786;19.138;2023-05-10T09:13:21;100550.69;;;19.14;46.50
76352;BME280;65179;47.786;19.138;2023-05-10T09:15:47;100549.59;;;19.30;46.80
76352;BME280;65179;47.786;19.138;2023-05-10T09:18:12;100554.00;;;19.26;46.59
76352;BME280;65179;47.786;19.138;2023-05-10T09:20:38;100552.88;;;19.12;47.03
76352;BME280;65179;47.786;19.138;2023-05-10T09:23:04;100542.94;;;19.11;46.42
76352;BME280;65179;47.786;19.138;2023-05-10T09:25:30;100558.28;;;18.77;47.68
76352;BME280;65179;47.786;19.138;2023-05-10T09:27:55;100556.69;;;19.01;46.82
76352;BME280;65179;47.786;19.138;2023-05-10T09:30:27;100557.16;;;18.73;46.89
76352;BME280;65179;47.786;19.138;2023-05-10T09:32:54;100547.38;;;19.22;46.70
76352;BME280;65179;47.786;19.138;2023-05-10T09:35:28;100544.50;;;18.77;46.44
76352;BME280;65179;47.786;19.138;2023-05-10T09:37:55;100544.28;;;18.32;48.07
76352;BME280;65179;47.786;19.138;2023-05-10T09:40:26;100539.31;;;18.29;48.81
76352;BME280;65179;47.786;19.138;2023-05-10T09:45:26;100539.06;;;18.35;48.19
76352;BME280;65179;47.786;19.138;2023-05-10T09:47:52;100540.47;;;18.38;48.51
76352;BME280;65179;47.786;19.138;2023-05-10T09:50:22;100552.94;;;19.62;45.30
76352;BME280;65179;47.786;19.138;2023-05-10T09:52:55;100543.84;;;19.67;45.15
76352;BME280;65179;47.786;19.138;2023-05-10T09:55:25;100541.34;;;19.96;43.53
76352;BME280;65179;47.786;19.138;2023-05-10T09:58:01;100543.00;;;19.87;44.35
76352;BME280;65179;47.786;19.138;2023-05-10T10:00:27;100538.25;;;19.02;44.87
76352;BME280;65179;47.786;19.138;2023-05-10T10:02:59;100532.00;;;19.56;44.26
76352;BME280;65179;47.786;19.138;2023-05-10T10:05:32;100526.69;;;20.30;42.69
76352;BME280;65179;47.786;19.138;2023-05-10T10:07:59;100529.94;;;20.42;42.11
76352;BME280;65179;47.786;19.138;2023-05-10T10:10:26;100528.97;;;20.82;41.37
76352;BME280;65179;47.786;19.138;2023-05-10T10:12:53;100522.13;;;21.19;39.94
76352;BME280;65179;47.786;19.138;2023-05-10T10:15:23;100522.09;;;21.29;40.73
76352;BME280;65179;47.786;19.138;2023-05-10T10:17:52;100528.78;;;21.56;39.45
76352;BME280;65179;47.786;19.138;2023-05-10T10:20:19;100523.84;;;21.82;39.35
76352;BME280;65179;47.786;19.138;2023-05-10T10:22:44;100514.22;;;21.74;39.20
76352;BME280;65179;47.786;19.138;2023-05-10T10:25:12;100514.41;;;21.88;37.83
76352;BME280;65179;47.786;19.138;2023-05-10T10:30:37;100496.56;;;22.28;37.89
76352;BME280;65179;47.786;19.138;2023-05-10T10:36:00;100501.37;;;21.60;38.61
76352;BME280;65179;47.786;19.138;2023-05-10T10:41:28;100497.84;;;21.54;38.51
76352;BME280;65179;47.786;19.138;2023-05-10T10:52:36;100492.00;;;21.56;38.12
76352;BME280;65179;47.786;19.138;2023-05-10T10:55:13;100490.41;;;21.50;37.23
76352;BME280;65179;47.786;19.138;2023-05-10T10:57:44;100483.00;;;22.03;37.34
76352;BME280;65179;47.786;19.138;2023-05-10T11:02:56;100485.88;;;22.63;36.97
76352;BME280;65179;47.786;19.138;2023-05-10T11:10:20;100471.69;;;22.46;36.42
76352;BME280;65179;47.786;19.138;2023-05-10T11:13:05;100465.25;;;21.51;36.74
76352;BME280;65179;47.786;19.138;2023-05-10T11:15:32;100464.37;;;22.13;37.43
76352;BME280;65179;47.786;19.138;2023-05-10T11:17:58;100474.22;;;21.67;37.24
76352;BME280;65179;47.786;19.138;2023-05-10T11:20:27;100459.75;;;21.18;37.59
76352;BME280;65179;47.786;19.138;2023-05-10T11:23:10;100460.44;;;21.62;37.18
76352;BME280;65179;47.786;19.138;2023-05-10T11:25:41;100458.63;;;22.52;36.49
76352;BME280;65179;47.786;19.138;2023-05-10T11:28:08;100447.91;;;22.69;36.04
76352;BME280;65179;47.786;19.138;2023-05-10T11:30:33;100462.41;;;22.98;34.05
76352;BME280;65179;47.786;19.138;2023-05-10T11:32:58;100444.63;;;22.43;34.11
76352;BME280;65179;47.786;19.138;2023-05-10T11:35:27;100452.31;;;22.46;35.89
76352;BME280;65179;47.786;19.138;2023-05-10T11:37:53;100449.28;;;22.48;36.30
76352;BME280;65179;47.786;19.138;2023-05-10T11:40:18;100449.28;;;22.24;36.84
76352;BME280;65179;47.786;19.138;2023-05-10T11:42:44;100446.16;;;22.07;37.47
76352;BME280;65179;47.786;19.138;2023-05-10T11:45:10;100438.81;;;22.21;37.27
76352;BME280;65179;47.786;19.138;2023-05-10T11:47:36;100446.97;;;22.31;36.95
76352;BME280;65179;47.786;19.138;2023-05-10T11:50:02;100444.69;;;22.38;36.48
76352;BME280;65179;47.786;19.138;2023-05-10T11:52:28;100450.56;;;22.74;35.98
76352;BME280;65179;47.786;19.138;2023-05-10T11:54:54;100440.19;;;22.85;35.50
76352;BME280;65179;47.786;19.138;2023-05-10T11:57:25;100431.91;;;23.35;35.21
76352;BME280;65179;47.786;19.138;2023-05-10T11:59:54;100433.41;;;23.09;34.74
76352;BME280;65179;47.786;19.138;2023-05-10T12:02:21;100431.16;;;22.55;35.61
76352;BME280;65179;47.786;19.138;2023-05-10T12:04:47;100429.56;;;22.07;37.18
76352;BME280;65179;47.786;19.138;2023-05-10T12:07:12;100430.03;;;22.14;36.96
76352;BME280;65179;47.786;19.138;2023-05-10T12:09:43;100441.06;;;22.38;36.71
76352;BME280;65179;47.786;19.138;2023-05-10T12:12:09;100430.00;;;22.19;36.59
76352;BME280;65179;47.786;19.138;2023-05-10T12:14:35;100437.72;;;22.41;35.79
76352;BME280;65179;47.786;19.138;2023-05-10T12:17:00;100431.94;;;21.95;36.07
76352;BME280;65179;47.786;19.138;2023-05-10T12:19:26;100434.50;;;22.34;35.17
76352;BME280;65179;47.786;19.138;2023-05-10T12:21:51;100433.81;;;22.23;35.83
76352;BME280;65179;47.786;19.138;2023-05-10T12:24:17;100425.38;;;22.76;35.70
76352;BME280;65179;47.786;19.138;2023-05-10T12:26:45;100431.03;;;23.03;35.33
76352;BME280;65179;47.786;19.138;2023-05-10T12:29:19;100427.91;;;23.42;34.76
76352;BME280;65179;47.786;19.138;2023-05-10T12:31:56;100430.63;;;23.28;34.43
76352;BME280;65179;47.786;19.138;2023-05-10T12:34:26;100429.09;;;22.66;35.09
76352;BME280;65179;47.786;19.138;2023-05-10T12:36:55;100432.19;;;22.41;35.25
76352;BME280;65179;47.786;19.138;2023-05-10T12:39:20;100429.41;;;22.83;35.56
76352;BME280;65179;47.786;19.138;2023-05-10T12:41:46;100422.12;;;23.06;35.22
76352;BME280;65179;47.786;19.138;2023-05-10T12:44:11;100423.63;;;22.98;34.93
76352;BME280;65179;47.786;19.138;2023-05-10T12:46:37;100406.50;;;22.78;35.01
76352;BME280;65179;47.786;19.138;2023-05-10T12:49:02;100411.38;;;22.67;34.90
76352;BME280;65179;47.786;19.138;2023-05-10T12:51:27;100404.28;;;23.12;34.55
76352;BME280;65179;47.786;19.138;2023-05-10T12:53:53;100404.38;;;23.07;34.22
76352;BME280;65179;47.786;19.138;2023-05-10T12:56:19;100406.03;;;23.08;34.32
76352;BME280;65179;47.786;19.138;2023-05-10T12:58:45;100391.62;;;22.74;34.68
76352;BME280;65179;47.786;19.138;2023-05-10T13:01:14;100397.41;;;22.11;35.26
76352;BME280;65179;47.786;19.138;2023-05-10T13:03:40;100394.53;;;21.74;35.66
76352;BME280;65179;47.786;19.138;2023-05-10T13:06:05;100387.97;;;21.70;34.88
76352;BME280;65179;47.786;19.138;2023-05-10T13:08:31;100385.91;;;21.80;34.77
76352;BME280;65179;47.786;19.138;2023-05-10T13:10:59;100382.72;;;21.92;35.78
76352;BME280;65179;47.786;19.138;2023-05-10T13:13:25;100389.22;;;22.06;35.01
76352;BME280;65179;47.786;19.138;2023-05-10T13:15:50;100384.03;;;22.00;35.32
76352;BME280;65179;47.786;19.138;2023-05-10T13:18:15;100377.56;;;21.85;35.86
76352;BME280;65179;47.786;19.138;2023-05-10T13:20:41;100382.34;;;21.75;35.07
76352;BME280;65179;47.786;19.138;2023-05-10T13:23:08;100385.75;;;21.67;34.73
76352;BME280;65179;47.786;19.138;2023-05-10T13:25:33;100378.06;;;21.64;34.29